createdAt,value
2023-04-18T00:01:09.823Z,12.30
2023-04-18T00:03:39.027Z,15.48
2023-04-18T00:06:08.596Z,17.52
2023-04-18T00:08:36.604Z,13.95
2023-04-18T00:11:04.672Z,13.27
2023-04-18T00:13:32.742Z,12.95
2023-04-18T00:16:01.778Z,16.20
2023-04-18T00:18:29.814Z,17.58
2023-04-18T00:20:57.859Z,13.02
2023-04-18T00:23:28.283Z,17.15
2023-04-18T00:25:56.317Z,11.77
2023-04-18T00:28:24.368Z,13.65
2023-04-18T00:30:52.414Z,12.23
2023-04-18T00:33:20.602Z,16.35
2023-04-18T00:35:48.556Z,15.57
2023-04-18T00:38:16.552Z,13.05
2023-04-18T00:40:45.908Z,16.08
2023-04-18T00:43:14.629Z,12.55
2023-04-18T00:45:42.673Z,18.83
2023-04-18T00:48:12.314Z,14.18
2023-04-18T00:50:41.711Z,14.52
2023-04-18T00:53:10.925Z,17.40
2023-04-18T00:55:40.655Z,17.63
2023-04-18T00:58:10.904Z,17.73
2023-04-18T01:00:39.122Z,15.93
2023-04-18T01:03:08.428Z,14.95
2023-04-18T01:05:37.254Z,14.93
2023-04-18T01:08:05.601Z,15.55
2023-04-18T01:10:37.670Z,15.75
2023-04-18T01:13:14.421Z,12.10
2023-04-18T01:15:43.590Z,13.05
2023-04-18T01:18:13.148Z,13.60
2023-04-18T01:20:45.739Z,14.05
2023-04-18T01:23:13.813Z,13.40
2023-04-18T01:25:43.906Z,14.75
2023-04-18T01:28:13.631Z,18.42
2023-04-18T01:30:41.939Z,12.77
2023-04-18T01:33:09.934Z,15.80
2023-04-18T01:35:37.940Z,14.55
2023-04-18T01:38:05.982Z,13.10
2023-04-18T01:40:34.968Z,14.07
2023-04-18T01:43:04.250Z,14.32
2023-04-18T01:45:32.358Z,11.55
2023-04-18T01:48:00.396Z,12.93
2023-04-18T01:50:28.426Z,12.13
2023-04-18T01:52:56.468Z,15.10
2023-04-18T01:55:24.488Z,11.10
2023-04-18T01:57:52.935Z,11.48
2023-04-18T02:00:22.846Z,11.75
2023-04-18T02:02:51.430Z,12.73
2023-04-18T02:05:22.216Z,11.45
2023-04-18T02:07:50.682Z,15.80
2023-04-18T02:10:18.924Z,12.40
2023-04-18T02:12:46.944Z,11.68
2023-04-18T02:15:15.022Z,12.52
2023-04-18T02:17:44.428Z,12.70
2023-04-18T02:20:13.342Z,11.68
2023-04-18T02:22:41.342Z,10.93
2023-04-18T02:25:10.850Z,11.95
2023-04-18T02:27:40.368Z,12.02
2023-04-18T02:30:09.422Z,13.48
2023-04-18T02:32:37.469Z,16.73
2023-04-18T02:35:07.684Z,13.50
2023-04-18T02:37:35.774Z,14.13
2023-04-18T02:40:05.560Z,12.02
2023-04-18T02:42:33.564Z,10.95
2023-04-18T02:45:02.634Z,11.15
2023-04-18T02:47:35.243Z,13.27
2023-04-18T02:50:11.203Z,13.63
2023-04-18T02:52:39.358Z,12.00
2023-04-18T02:55:08.907Z,12.35
2023-04-18T02:57:40.622Z,12.43
2023-04-18T03:00:40.201Z,14.65
2023-04-18T03:03:40.499Z,14.95
2023-04-18T03:06:27.241Z,13.70
2023-04-18T03:08:55.699Z,11.05
2023-04-18T03:11:24.742Z,12.07
2023-04-18T03:13:53.103Z,14.13
2023-04-18T03:16:23.284Z,13.88
2023-04-18T03:18:51.448Z,14.07
2023-04-18T03:21:20.718Z,11.80
2023-04-18T03:23:50.237Z,13.80
2023-04-18T03:26:18.301Z,15.13
2023-04-18T03:28:46.949Z,12.52
2023-04-18T03:31:15.153Z,15.27
2023-04-18T03:33:45.959Z,13.98
2023-04-18T03:36:17.247Z,11.77
2023-04-18T03:38:45.923Z,12.82
2023-04-18T03:41:15.453Z,13.73
2023-04-18T03:43:43.486Z,12.27
2023-04-18T03:46:11.592Z,13.73
2023-04-18T03:48:39.713Z,14.10
2023-04-18T03:51:10.754Z,13.93
2023-04-18T03:53:40.463Z,14.80
2023-04-18T03:56:08.650Z,13.02
2023-04-18T03:58:50.541Z,14.18
2023-04-18T04:01:19.918Z,11.63
2023-04-18T04:03:48.192Z,14.80
2023-04-18T04:06:17.650Z,12.25
2023-04-18T04:08:46.148Z,11.82
2023-04-18T04:11:17.509Z,12.80
2023-04-18T04:13:45.672Z,13.73
2023-04-18T04:16:17.653Z,11.82
2023-04-18T04:18:46.743Z,12.15
2023-04-18T04:21:15.733Z,12.75
2023-04-18T04:23:48.918Z,12.85
2023-04-18T04:26:30.690Z,11.45
2023-04-18T04:29:04.190Z,14.95
2023-04-18T04:31:36.169Z,12.88
2023-04-18T04:34:05.041Z,13.48
2023-04-18T04:36:34.848Z,15.60
2023-04-18T04:39:05.289Z,14.18
2023-04-18T04:41:42.536Z,11.40
2023-04-18T04:44:11.332Z,14.13
2023-04-18T04:46:41.341Z,13.82
2023-04-18T04:49:16.063Z,12.93
2023-04-18T04:51:44.337Z,17.55
2023-04-18T04:54:12.630Z,14.73
2023-04-18T04:56:41.339Z,12.60
2023-04-18T04:59:09.629Z,15.15
2023-04-18T05:01:43.182Z,12.38
2023-04-18T05:04:11.477Z,14.25
2023-04-18T05:06:40.428Z,13.60
2023-04-18T05:09:08.436Z,14.70
2023-04-18T05:11:36.464Z,12.43
2023-04-18T05:14:04.805Z,12.90
2023-04-18T05:16:32.950Z,14.88
2023-04-18T05:19:02.469Z,17.23
2023-04-18T05:21:31.281Z,17.98
2023-04-18T05:23:59.333Z,19.27
2023-04-18T05:26:27.396Z,13.38
2023-04-18T05:28:55.469Z,18.02
2023-04-18T05:31:23.501Z,15.30
2023-04-18T05:33:51.589Z,18.33
2023-04-18T05:36:21.264Z,16.25
2023-04-18T05:38:49.347Z,14.98
2023-04-18T05:41:17.402Z,15.25
2023-04-18T05:43:51.134Z,14.75
2023-04-18T05:46:26.220Z,14.45
2023-04-18T05:48:54.280Z,15.15
2023-04-18T05:51:23.762Z,19.42
2023-04-18T05:53:51.756Z,16.42
2023-04-18T05:56:19.781Z,16.75
2023-04-18T05:58:47.914Z,16.83
2023-04-18T06:01:16.264Z,17.50
2023-04-18T06:03:44.444Z,19.88
2023-04-18T06:06:12.856Z,16.85
2023-04-18T06:08:42.316Z,16.95
2023-04-18T06:11:10.378Z,13.80
2023-04-18T06:13:38.607Z,16.23
2023-04-18T06:16:07.200Z,14.60
2023-04-18T06:18:35.686Z,14.77
2023-04-18T06:21:03.732Z,14.55
2023-04-18T06:23:31.794Z,12.98
2023-04-18T06:26:01.713Z,13.73
2023-04-18T06:28:29.679Z,13.50
2023-04-18T06:30:57.627Z,14.30
2023-04-18T06:33:25.665Z,12.43
2023-04-18T06:35:54.019Z,12.40
2023-04-18T06:38:22.113Z,15.57
2023-04-18T06:40:50.063Z,10.77
2023-04-18T06:43:19.406Z,11.10
2023-04-18T06:45:47.423Z,13.15
2023-04-18T06:48:15.563Z,13.40
2023-04-18T06:50:43.853Z,10.52
2023-04-18T06:53:11.894Z,11.82
2023-04-18T06:55:40.794Z,15.13
2023-04-18T06:58:10.107Z,13.32
2023-04-18T07:00:39.512Z,11.65
2023-04-18T07:03:11.365Z,19.42
2023-04-18T07:05:39.933Z,14.57
2023-04-18T07:08:08.516Z,12.48
2023-04-18T07:10:36.561Z,13.95
2023-04-18T07:13:04.651Z,12.60
2023-04-18T07:15:32.731Z,12.48
2023-04-18T07:18:02.165Z,12.27
2023-04-18T07:20:30.171Z,11.85
2023-04-18T07:22:58.115Z,10.95
2023-04-18T07:25:26.299Z,10.82
2023-04-18T07:27:54.305Z,11.75
2023-04-18T07:30:22.404Z,13.65
2023-04-18T07:32:50.541Z,10.88
2023-04-18T07:35:19.882Z,14.82
2023-04-18T07:37:47.869Z,14.30
2023-04-18T07:40:16.552Z,13.23
2023-04-18T07:42:44.491Z,13.98
2023-04-18T07:45:12.661Z,14.77
2023-04-18T07:47:40.650Z,13.48
2023-04-18T07:50:10.235Z,14.02
2023-04-18T07:52:39.762Z,12.43
2023-04-18T07:55:08.817Z,13.70
2023-04-18T07:57:36.833Z,12.82
2023-04-18T08:00:06.398Z,13.48
2023-04-18T08:02:41.731Z,14.45
2023-04-18T08:05:10.779Z,15.02
2023-04-18T08:07:40.253Z,13.70
2023-04-18T08:10:09.048Z,16.45
2023-04-18T08:12:37.308Z,13.68
2023-04-18T08:15:05.703Z,16.50
2023-04-18T08:17:33.797Z,12.13
2023-04-18T08:20:04.859Z,14.98
2023-04-18T08:22:32.879Z,12.02
2023-04-18T08:25:05.578Z,15.32
2023-04-18T08:27:33.883Z,14.40
2023-04-18T08:30:04.120Z,14.35
2023-04-18T08:32:32.524Z,16.65
2023-04-18T08:35:00.929Z,14.27
2023-04-18T08:37:29.109Z,15.55
2023-04-18T08:39:57.156Z,16.75
2023-04-18T08:42:26.816Z,16.25
2023-04-18T08:44:55.081Z,16.70
2023-04-18T08:47:23.754Z,14.25
2023-04-18T08:49:53.549Z,18.25
2023-04-18T08:52:23.612Z,16.67
2023-04-18T08:54:52.511Z,17.35
2023-04-18T08:57:26.706Z,15.43
2023-04-18T08:59:56.456Z,16.98
2023-04-18T09:02:38.784Z,17.92
2023-04-18T09:05:12.781Z,17.75
2023-04-18T09:07:40.972Z,14.75
2023-04-18T09:10:09.885Z,19.17
2023-04-18T09:12:44.636Z,19.27
2023-04-18T09:15:15.975Z,19.97
2023-04-18T09:17:49.333Z,19.55
2023-04-18T09:20:37.644Z,16.20
2023-04-18T09:23:10.675Z,19.35
2023-04-18T09:25:46.360Z,17.17
2023-04-18T09:28:27.037Z,19.67
2023-04-18T09:30:57.248Z,18.98
2023-04-18T09:33:32.488Z,17.73
2023-04-18T09:36:18.814Z,18.10
2023-04-18T09:38:47.262Z,22.63
2023-04-18T09:41:19.951Z,19.52
2023-04-18T09:43:49.763Z,19.02
2023-04-18T09:46:19.147Z,19.35
2023-04-18T09:48:47.268Z,21.17
2023-04-18T09:51:17.167Z,21.45
2023-04-18T09:53:47.505Z,17.90
2023-04-18T09:56:20.951Z,18.25
2023-04-18T09:58:57.533Z,20.58
2023-04-18T10:01:29.604Z,18.48
2023-04-18T10:03:58.679Z,19.35
2023-04-18T10:06:28.564Z,17.02
2023-04-18T10:08:57.074Z,17.60
2023-04-18T10:11:25.791Z,18.08
2023-04-18T10:13:57.943Z,17.80
2023-04-18T10:16:28.679Z,18.02
2023-04-18T10:18:58.321Z,21.90
2023-04-18T10:21:27.654Z,15.52
2023-04-18T10:23:55.731Z,19.30
2023-04-18T10:26:50.090Z,18.02
2023-04-18T10:29:18.822Z,19.23
2023-04-18T10:31:48.793Z,17.67
2023-04-18T10:34:19.537Z,18.63
2023-04-18T10:37:06.065Z,16.27
2023-04-18T10:39:49.353Z,21.13
2023-04-18T10:42:17.518Z,18.85
2023-04-18T10:45:05.564Z,16.20
2023-04-18T10:47:35.148Z,19.10
2023-04-18T10:50:06.750Z,18.45
2023-04-18T10:52:36.376Z,18.38
2023-04-18T10:55:18.167Z,26.98
2023-04-18T10:57:47.559Z,16.83
2023-04-18T11:00:17.726Z,14.65
2023-04-18T11:02:57.896Z,20.50
2023-04-18T11:05:27.738Z,16.05
2023-04-18T11:07:56.180Z,17.02
2023-04-18T11:10:26.580Z,15.90
2023-04-18T11:12:55.380Z,19.13
2023-04-18T11:15:25.611Z,16.20
2023-04-18T11:18:00.000Z,20.35
2023-04-18T11:20:28.442Z,18.13
2023-04-18T11:22:58.630Z,19.10
2023-04-18T11:25:28.824Z,25.92
2023-04-18T11:27:59.986Z,18.77
2023-04-18T11:30:28.512Z,16.70
2023-04-18T11:32:57.942Z,16.00
2023-04-18T11:35:26.013Z,16.30
2023-04-18T11:37:56.156Z,18.17
2023-04-18T11:40:24.224Z,19.73
2023-04-18T11:42:55.311Z,18.17
2023-04-18T11:45:23.269Z,18.67
2023-04-18T11:47:58.457Z,18.77
2023-04-18T11:50:26.949Z,18.75
2023-04-18T11:52:56.162Z,16.63
2023-04-18T11:55:27.092Z,20.17
2023-04-18T11:57:56.449Z,17.48
2023-04-18T12:00:33.970Z,19.95
2023-04-18T12:03:05.531Z,19.65
2023-04-18T12:05:35.950Z,20.48
2023-04-18T12:08:08.490Z,23.40
2023-04-18T12:10:37.006Z,21.40
2023-04-18T12:13:08.486Z,21.65
2023-04-18T12:15:39.839Z,19.27
2023-04-18T12:18:09.425Z,20.55
2023-04-18T12:20:38.873Z,17.33
2023-04-18T12:23:07.965Z,21.38
2023-04-18T12:25:36.392Z,20.17
2023-04-18T12:28:15.352Z,19.80
2023-04-18T12:30:43.623Z,21.23
2023-04-18T12:33:13.300Z,18.35
2023-04-18T12:35:41.358Z,17.40
2023-04-18T12:38:09.380Z,16.60
2023-04-18T12:40:39.911Z,18.05
2023-04-18T12:43:08.272Z,17.50
2023-04-18T12:45:36.407Z,16.48
2023-04-18T12:48:04.600Z,21.27
2023-04-18T12:50:34.160Z,18.52
2023-04-18T12:53:03.266Z,17.77
2023-04-18T12:55:31.300Z,16.33
2023-04-18T12:57:59.344Z,18.60
2023-04-18T13:00:29.283Z,19.02
2023-04-18T13:02:57.784Z,17.83
2023-04-18T13:05:29.173Z,17.85
2023-04-18T13:08:12.679Z,16.67
2023-04-18T13:10:43.952Z,17.70
2023-04-18T13:13:11.933Z,17.02
2023-04-18T13:15:40.122Z,16.40
2023-04-18T13:18:08.398Z,18.17
2023-04-18T13:20:37.054Z,19.77
2023-04-18T13:23:06.591Z,14.70
2023-04-18T13:25:34.618Z,17.90
2023-04-18T13:28:02.593Z,16.17
2023-04-18T13:30:30.564Z,17.05
2023-04-18T13:32:58.574Z,15.63
2023-04-18T13:35:26.518Z,17.75
2023-04-18T13:37:54.548Z,16.38
2023-04-18T13:40:24.210Z,15.80
2023-04-18T13:42:52.474Z,16.27
2023-04-18T13:45:20.940Z,15.18
2023-04-18T13:47:49.036Z,15.25
2023-04-18T13:50:17.002Z,15.20
2023-04-18T13:52:45.055Z,16.85
2023-04-18T13:55:13.273Z,16.75
2023-04-18T13:57:42.900Z,14.52
2023-04-18T14:00:13.957Z,14.82
2023-04-18T14:02:42.200Z,15.70
2023-04-18T14:05:10.920Z,16.75
2023-04-18T14:07:39.261Z,20.13
2023-04-18T14:10:08.212Z,13.43
2023-04-18T14:12:36.331Z,18.88
2023-04-18T14:15:06.818Z,27.27
2023-04-18T14:17:34.960Z,12.48
2023-04-18T14:20:03.361Z,15.18
2023-04-18T14:22:31.318Z,14.07
2023-04-18T14:24:59.310Z,15.30
2023-04-18T14:27:27.697Z,12.45
2023-04-18T14:29:55.719Z,13.15
2023-04-18T14:32:26.680Z,15.20
2023-04-18T14:34:54.618Z,14.48
2023-04-18T14:37:23.030Z,14.20
2023-04-18T14:39:51.044Z,13.40
2023-04-18T14:42:19.382Z,15.18
2023-04-18T14:44:47.373Z,12.45
2023-04-18T14:47:16.314Z,12.85
2023-04-18T14:49:45.578Z,12.88
2023-04-18T14:52:13.974Z,10.93
2023-04-18T14:54:42.118Z,11.38
2023-04-18T14:57:10.230Z,15.65
2023-04-18T14:59:38.310Z,14.50
2023-04-18T15:02:06.384Z,11.18
2023-04-18T15:04:34.664Z,10.23
2023-04-18T15:07:04.019Z,12.00
2023-04-18T15:09:36.376Z,9.70
2023-04-18T15:12:04.625Z,13.00
2023-04-18T15:14:32.964Z,16.67
2023-04-18T15:17:01.212Z,13.55
2023-04-18T15:19:30.375Z,14.93
2023-04-18T15:21:58.514Z,14.95
2023-04-18T15:24:28.013Z,18.42
2023-04-18T15:26:57.000Z,14.93
2023-04-18T15:29:24.955Z,15.43
2023-04-18T15:31:53.052Z,15.35
2023-04-18T15:34:21.229Z,13.52
2023-04-18T15:36:49.798Z,13.05
2023-04-18T15:39:21.711Z,14.60
2023-04-18T15:41:53.658Z,17.88
2023-04-18T15:44:21.862Z,14.75
2023-04-18T15:46:50.017Z,14.23
2023-04-18T15:49:18.120Z,18.42
2023-04-18T15:51:46.128Z,14.02
2023-04-18T15:54:14.519Z,13.85
2023-04-18T15:56:44.670Z,14.48
2023-04-18T15:59:14.708Z,12.35
2023-04-18T16:01:45.633Z,12.57
2023-04-18T16:04:14.344Z,12.68
2023-04-18T16:06:43.160Z,13.20
2023-04-18T16:09:11.132Z,14.52
2023-04-18T16:11:39.151Z,13.32
2023-04-18T16:14:07.205Z,12.85
2023-04-18T16:16:36.576Z,14.52
2023-04-18T16:19:05.434Z,11.25
2023-04-18T16:21:33.658Z,10.82
2023-04-18T16:24:01.795Z,10.27
2023-04-18T16:26:29.794Z,10.77
2023-04-18T16:28:58.009Z,10.10
2023-04-18T16:31:26.167Z,11.07
2023-04-18T16:33:56.012Z,10.43
2023-04-18T16:36:24.238Z,12.23
2023-04-18T16:38:52.193Z,10.70
2023-04-18T16:41:20.136Z,9.50
2023-04-18T16:43:48.087Z,9.95
2023-04-18T16:46:16.141Z,9.70
2023-04-18T16:48:45.200Z,9.40
2023-04-18T16:51:14.684Z,9.13
2023-04-18T16:53:42.732Z,10.15
2023-04-18T16:56:10.698Z,9.18
2023-04-18T16:58:38.764Z,9.30
2023-04-18T17:01:08.042Z,10.20
2023-04-18T17:03:36.576Z,9.63
2023-04-18T17:06:05.765Z,9.65
2023-04-18T17:08:35.910Z,8.93
2023-04-18T17:11:04.196Z,10.00
2023-04-18T17:13:32.393Z,9.60
2023-04-18T17:16:00.718Z,11.60
2023-04-18T17:18:29.378Z,11.98
2023-04-18T17:20:57.448Z,9.48
2023-04-18T17:23:25.475Z,10.07
2023-04-18T17:25:54.828Z,9.70
2023-04-18T17:28:23.522Z,9.68
2023-04-18T17:30:51.802Z,10.00
2023-04-18T17:33:19.761Z,10.38
2023-04-18T17:35:48.184Z,9.30
2023-04-18T17:38:16.172Z,12.05
2023-04-18T17:40:44.135Z,10.95
2023-04-18T17:43:13.604Z,12.13
2023-04-18T17:45:42.345Z,12.70
2023-04-18T17:48:10.304Z,11.18
2023-04-18T17:50:38.398Z,11.30
2023-04-18T17:53:06.289Z,14.57
2023-04-18T17:55:34.353Z,12.10
2023-04-18T17:58:02.295Z,12.52
2023-04-18T18:00:31.655Z,16.35
2023-04-18T18:03:01.345Z,14.30
2023-04-18T18:05:30.233Z,15.30
2023-04-18T18:07:58.424Z,19.55
2023-04-18T18:10:26.823Z,15.93
2023-04-18T18:12:54.820Z,16.00
2023-04-18T18:15:24.103Z,13.98
2023-04-18T18:17:54.790Z,12.88
2023-04-18T18:20:22.904Z,17.02
2023-04-18T18:22:51.393Z,13.10
2023-04-18T18:25:20.605Z,14.30
2023-04-18T18:27:49.327Z,16.48
2023-04-18T18:30:17.414Z,14.38
2023-04-18T18:32:45.352Z,14.68
2023-04-18T18:35:14.909Z,13.73
2023-04-18T18:37:42.970Z,14.45
2023-04-18T18:40:11.576Z,14.32
2023-04-18T18:42:39.541Z,14.95
2023-04-18T18:45:08.899Z,13.40
2023-04-18T18:47:39.624Z,13.82
2023-04-18T18:50:08.735Z,16.05
2023-04-18T18:52:40.708Z,13.00
2023-04-18T18:55:09.845Z,15.43
2023-04-18T18:57:38.066Z,13.80
2023-04-18T19:00:09.299Z,14.43
2023-04-18T19:02:37.722Z,12.68
2023-04-18T19:05:07.400Z,15.75
2023-04-18T19:07:36.813Z,14.63
2023-04-18T19:10:05.578Z,13.93
2023-04-18T19:12:33.525Z,16.92
2023-04-18T19:15:01.752Z,18.05
2023-04-18T19:17:30.921Z,14.25
2023-04-18T19:20:01.206Z,16.92
2023-04-18T19:22:29.442Z,16.55
2023-04-18T19:25:00.383Z,15.45
2023-04-18T19:27:28.424Z,16.25
2023-04-18T19:29:56.424Z,14.85
2023-04-18T19:32:24.503Z,15.68
2023-04-18T19:34:52.593Z,14.73
2023-04-18T19:37:20.782Z,16.50
2023-04-18T19:39:48.881Z,14.68
2023-04-18T19:42:18.247Z,15.13
2023-04-18T19:44:46.209Z,14.07
2023-04-18T19:47:14.246Z,14.32
2023-04-18T19:49:42.187Z,15.73
2023-04-18T19:52:10.234Z,15.68
2023-04-18T19:54:38.296Z,14.82
2023-04-18T19:57:06.348Z,16.33
2023-04-18T19:59:35.732Z,14.15
2023-04-18T20:02:05.897Z,13.32
2023-04-18T20:04:36.533Z,15.43
2023-04-18T20:07:04.803Z,14.98
2023-04-18T20:09:32.762Z,15.23
2023-04-18T20:12:01.892Z,14.02
2023-04-18T20:14:30.236Z,16.00
2023-04-18T20:16:59.619Z,15.63
2023-04-18T20:19:29.611Z,14.52
2023-04-18T20:21:57.708Z,14.50
2023-04-18T20:24:27.949Z,13.65
2023-04-18T20:26:57.119Z,15.10
2023-04-18T20:29:25.291Z,14.02
2023-04-18T20:31:53.157Z,13.48
2023-04-18T20:34:22.426Z,15.25
2023-04-18T20:36:52.328Z,13.68
2023-04-18T20:39:20.319Z,14.63
2023-04-18T20:41:51.290Z,13.95
2023-04-18T20:44:21.675Z,15.38
2023-04-18T20:46:49.709Z,13.30
2023-04-18T20:49:17.786Z,14.32
2023-04-18T20:51:47.150Z,13.20
2023-04-18T20:54:15.496Z,15.02
2023-04-18T20:56:43.585Z,13.90
2023-04-18T20:59:11.551Z,14.90
2023-04-18T21:01:39.549Z,13.85
2023-04-18T21:04:07.640Z,16.25
2023-04-18T21:06:36.512Z,14.93
2023-04-18T21:09:06.425Z,14.27
2023-04-18T21:11:34.534Z,14.55
2023-04-18T21:14:03.776Z,13.63
2023-04-18T21:16:31.959Z,13.88
2023-04-18T21:18:59.966Z,15.43
2023-04-18T21:21:28.361Z,13.60
2023-04-18T21:23:56.269Z,13.07
2023-04-18T21:26:25.749Z,16.20
2023-04-18T21:28:58.194Z,15.85
2023-04-18T21:31:27.393Z,12.00
2023-04-18T21:33:56.150Z,13.80
2023-04-18T21:36:26.376Z,14.88
2023-04-18T21:38:55.273Z,14.98
2023-04-18T21:41:25.626Z,15.15
2023-04-18T21:43:54.184Z,13.80
2023-04-18T21:46:22.554Z,17.27
2023-04-18T21:48:50.616Z,16.50
2023-04-18T21:51:18.728Z,16.17
2023-04-18T21:53:46.664Z,17.73
2023-04-18T21:56:15.035Z,14.23
2023-04-18T21:58:44.361Z,15.35
2023-04-18T22:01:12.641Z,17.17
2023-04-18T22:03:40.746Z,15.77
2023-04-18T22:06:08.984Z,13.65
2023-04-18T22:08:36.972Z,20.48
2023-04-18T22:11:05.660Z,15.55
2023-04-18T22:13:33.713Z,18.00
2023-04-18T22:16:04.023Z,15.38
2023-04-18T22:18:34.244Z,16.98
2023-04-18T22:21:03.206Z,16.15
2023-04-18T22:23:31.706Z,17.35
2023-04-18T22:25:59.693Z,17.30
2023-04-18T22:28:28.354Z,15.75
2023-04-18T22:30:56.387Z,16.00
2023-04-18T22:33:25.912Z,15.40
2023-04-18T22:35:54.205Z,16.23
2023-04-18T22:38:22.365Z,16.73
2023-04-18T22:40:50.290Z,18.52
2023-04-18T22:43:22.490Z,17.35
2023-04-18T22:45:51.220Z,16.35
2023-04-18T22:48:19.539Z,15.75
2023-04-18T22:50:49.705Z,18.98
2023-04-18T22:53:17.923Z,16.77
2023-04-18T22:55:46.591Z,19.15
2023-04-18T22:58:14.692Z,16.40
2023-04-18T23:00:43.867Z,16.58
2023-04-18T23:03:12.035Z,16.95
2023-04-18T23:05:40.905Z,18.50
2023-04-18T23:08:11.808Z,17.35
2023-04-18T23:10:40.006Z,16.17
2023-04-18T23:13:08.090Z,16.10
2023-04-18T23:15:36.032Z,18.02
2023-04-18T23:18:04.364Z,16.63
2023-04-18T23:20:32.417Z,17.58
2023-04-18T23:23:00.520Z,14.82
2023-04-18T23:25:29.821Z,14.82
2023-04-18T23:27:57.790Z,16.88
2023-04-18T23:30:26.642Z,17.58
2023-04-18T23:32:54.832Z,17.20
2023-04-18T23:35:23.010Z,16.42
2023-04-18T23:37:51.151Z,17.27
2023-04-18T23:40:19.362Z,16.52
2023-04-18T23:42:48.656Z,18.42
2023-04-18T23:45:16.721Z,14.93
2023-04-18T23:47:44.726Z,15.45
2023-04-18T23:50:13.218Z,17.67
2023-04-18T23:52:41.223Z,17.80
2023-04-18T23:55:09.965Z,20.90
2023-04-18T23:57:38.234Z,16.98
